Time;durP1;ratioP1;P1;durP2;ratioP2;P2;SDS_P1;SDS_P2;PMS_P1;PMS_P2;Temp;Humidity;BMP_temperature;BMP_pressure;BME280_temperature;BME280_humidity;BME280_pressure;Samples;Min_cycle;Max_cycle;Signal;HPM_P1;HPM_P2
2023/01/23 00:01:36;;;;;;;16.95;7.63;;;;;;;-5.63;100.00;102884.00;5059859;28;20040;-54
2023/01/23 00:04:03;;;;;;;18.70;7.82;;;;;;;-5.59;100.00;102885.66;5061276;28;20051;-56
2023/01/23 00:06:29;;;;;;;14.00;6.53;;;;;;;-5.60;100.00;102883.94;5057869;28;20067;-53
2023/01/23 00:08:55;;;;;;;18.13;7.95;;;;;;;-5.62;100.00;102891.72;5059651;28;20370;-57
2023/01/23 00:11:24;;;;;;;15.35;6.93;;;;;;;-5.61;100.00;102884.81;5062778;28;20111;-52
2023/01/23 00:13:50;;;;;;;18.02;7.05;;;;;;;-5.65;100.00;102880.56;5059979;28;20033;-56
2023/01/23 00:16:18;;;;;;;11.38;6.68;;;;;;;-5.69;100.00;102884.97;5063414;28;20089;-52
2023/01/23 00:18:44;;;;;;;12.52;5.95;;;;;;;-5.67;100.00;102877.19;5056222;28;20033;-54
2023/01/23 00:21:18;;;;;;;15.60;7.90;;;;;;;-5.65;100.00;102878.88;5066077;28;20097;-51
2023/01/23 00:23:46;;;;;;;19.10;7.75;;;;;;;-5.14;100.00;102880.47;5059962;28;20386;-54
2023/01/23 00:26:16;;;;;;;10.45;6.03;;;;;;;-5.60;100.00;102884.81;5058810;28;20565;-53
2023/01/23 00:28:43;;;;;;;13.68;6.20;;;;;;;-5.62;100.00;102891.72;5061357;28;20033;-53
2023/01/23 00:31:14;;;;;;;12.88;5.15;;;;;;;-5.73;100.00;102896.22;5066946;28;20107;-54
2023/01/23 00:33:41;;;;;;;15.90;6.28;;;;;;;-5.69;100.00;102897.88;5058358;28;20052;-56
2023/01/23 00:36:07;;;;;;;14.75;6.20;;;;;;;-5.70;100.00;102891.03;5055142;28;20112;-57
2023/01/23 00:38:33;;;;;;;14.93;6.07;;;;;;;-5.61;100.00;102885.66;5054223;28;20419;-55
2023/01/23 00:40:58;;;;;;;10.82;5.13;;;;;;;-5.70;100.00;102880.69;5062631;28;20078;-57
2023/01/23 00:43:24;;;;;;;10.45;4.85;;;;;;;-5.29;100.00;102884.25;5064138;28;20054;-55
2023/01/23 00:45:50;;;;;;;12.68;4.93;;;;;;;-5.20;100.00;102884.03;5060192;28;20399;-56
2023/01/23 00:48:16;;;;;;;9.00;4.18;;;;;;;-5.49;100.00;102882.03;5065420;28;20044;-55
2023/01/23 00:50:42;;;;;;;6.57;4.05;;;;;;;-5.80;100.00;102877.41;5058255;28;20049;-57
2023/01/23 00:53:08;;;;;;;13.07;5.72;;;;;;;-5.83;100.00;102884.38;5054967;28;20032;-55
2023/01/23 00:55:33;;;;;;;17.67;7.18;;;;;;;-5.58;100.00;102877.84;5059154;28;20032;-57
2023/01/23 00:57:59;;;;;;;8.65;3.75;;;;;;;-5.33;100.00;102878.25;5058684;28;20482;-57
2023/01/23 01:00:25;;;;;;;11.57;5.18;;;;;;;-5.40;100.00;102881.81;5058064;28;20538;-56
2023/01/23 01:02:50;;;;;;;16.73;5.17;;;;;;;-5.65;100.00;102886.63;5059267;28;20464;-54
2023/01/23 01:05:17;;;;;;;19.30;5.75;;;;;;;-5.53;100.00;102878.63;5062480;28;20028;-54
2023/01/23 01:07:46;;;;;;;12.43;5.18;;;;;;;-5.70;100.00;102866.03;5061172;28;20087;-55
2023/01/23 01:10:12;;;;;;;15.23;4.97;;;;;;;-5.34;100.00;102858.47;5063659;28;20041;-56
2023/01/23 01:12:37;;;;;;;10.47;5.23;;;;;;;-5.51;100.00;102858.78;5058187;28;20029;-54
2023/01/23 01:15:03;;;;;;;13.70;5.00;;;;;;;-5.19;100.00;102856.44;5057778;28;20652;-56
2023/01/23 01:17:29;;;;;;;11.48;4.65;;;;;;;-5.81;100.00;102867.09;5055987;28;20021;-57
2023/01/23 01:19:54;;;;;;;10.25;4.85;;;;;;;-5.93;100.00;102866.44;5059944;28;20026;-54
2023/01/23 01:22:19;;;;;;;21.27;5.73;;;;;;;-5.89;100.00;102856.88;5059553;28;20362;-54
2023/01/23 01:24:45;;;;;;;12.63;5.03;;;;;;;-5.86;100.00;102861.13;5059242;28;20095;-55
2023/01/23 01:27:10;;;;;;;10.30;5.23;;;;;;;-5.88;100.00;102868.09;5060323;28;20043;-54
2023/01/23 01:29:36;;;;;;;18.63;5.57;;;;;;;-6.10;100.00;102863.31;5064422;28;20078;-52
2023/01/23 01:32:01;;;;;;;13.27;4.67;;;;;;;-6.12;100.00;102874.53;5058844;28;20082;-57
2023/01/23 01:34:26;;;;;;;14.03;4.67;;;;;;;-6.15;100.00;102873.69;5058832;28;20422;-55
2023/01/23 01:36:52;;;;;;;11.37;5.57;;;;;;;-6.11;100.00;102882.28;5043956;28;20558;-55
2023/01/23 01:39:18;;;;;;;9.47;5.93;;;;;;;-6.09;100.00;102888.28;5055723;28;20389;-51
2023/01/23 01:41:43;;;;;;;9.17;5.03;;;;;;;-6.13;100.00;102881.44;5062850;28;20036;-55
2023/01/23 01:44:20;;;;;;;11.02;4.70;;;;;;;-6.22;100.00;102897.06;5061279;28;20029;-53
2023/01/23 01:46:45;;;;;;;13.13;4.80;;;;;;;-6.31;100.00;102890.31;5059781;28;20107;-54
2023/01/23 01:49:14;;;;;;;7.73;3.17;;;;;;;-6.33;100.00;102896.38;5063785;28;20033;-54
2023/01/23 01:51:51;;;;;;;8.67;4.33;;;;;;;-6.39;100.00;102905.06;5062435;28;20036;-55
2023/01/23 01:54:27;;;;;;;7.73;4.03;;;;;;;-6.40;100.00;102899.06;5060328;28;20439;-57
2023/01/23 01:57:14;;;;;;;8.60;3.97;;;;;;;-6.42;100.00;102910.28;5067172;28;20597;-53
2023/01/23 02:00:05;;;;;;;13.13;5.10;;;;;;;-6.46;100.00;102912.03;5060923;28;20417;-55
2023/01/23 02:02:53;;;;;;;8.50;3.77;;;;;;;-6.48;100.00;102908.66;5051008;28;20102;-54
2023/01/23 02:05:23;;;;;;;17.53;4.47;;;;;;;-6.46;100.00;102909.47;5058993;28;20036;-52
2023/01/23 02:08:22;;;;;;;15.30;5.30;;;;;;;-6.14;100.00;102905.56;5061845;28;20044;-53
2023/01/23 02:10:48;;;;;;;12.70;4.57;;;;;;;-6.43;100.00;102895.66;5071319;28;20075;-56
2023/01/23 02:13:24;;;;;;;9.10;4.07;;;;;;;-6.57;100.00;102903.63;5063899;28;20040;-54
2023/01/23 02:15:51;;;;;;;12.20;4.67;;;;;;;-6.56;100.00;102914.78;5054180;28;20032;-57
2023/01/23 02:18:17;;;;;;;13.10;3.97;;;;;;;-6.52;100.00;102917.31;5061448;28;20032;-55
2023/01/23 02:20:42;;;;;;;11.17;5.27;;;;;;;-6.53;100.00;102917.31;5063983;28;20466;-56
2023/01/23 02:23:19;;;;;;;9.87;4.13;;;;;;;-6.48;100.00;102915.53;5061985;28;20033;-55
2023/01/23 02:26:02;;;;;;;9.43;5.13;;;;;;;-6.51;100.00;102926.75;5056986;28;20094;-55
2023/01/23 02:28:45;;;;;;;16.53;5.00;;;;;;;-6.17;100.00;102924.56;5061126;28;20033;-52
2023/01/23 02:31:12;;;;;;;12.87;5.23;;;;;;;-6.51;100.00;102919.00;5062539;28;20032;-53
2023/01/23 02:33:37;;;;;;;11.67;3.70;;;;;;;-6.13;100.00;102911.59;5064690;28;20385;-56
2023/01/23 02:36:04;;;;;;;10.33;3.93;;;;;;;-6.49;100.00;102912.09;5055044;28;20038;-56
2023/01/23 02:38:35;;;;;;;5.00;2.97;;;;;;;-6.56;100.00;102915.63;5071318;28;20116;-55
2023/01/23 02:41:04;;;;;;;7.63;3.92;;;;;;;-6.64;100.00;102918.31;5061806;28;20027;-57
2023/01/23 02:43:34;;;;;;;13.40;4.50;;;;;;;-6.70;100.00;102927.88;5072577;28;20490;-56
2023/01/23 02:46:09;;;;;;;12.30;3.83;;;;;;;-6.69;100.00;102925.25;5050778;28;20041;-51
2023/01/23 02:48:39;;;;;;;9.97;4.50;;;;;;;-6.17;100.00;102919.38;5071594;28;20033;-54
2023/01/23 02:51:04;;;;;;;6.27;3.87;;;;;;;-6.56;100.00;102915.63;5061604;28;20116;-56
2023/01/23 02:53:30;;;;;;;6.83;3.27;;;;;;;-6.72;100.00;102924.47;5061106;28;20044;-56
2023/01/23 02:55:57;;;;;;;8.40;3.77;;;;;;;-6.79;100.00;102913.34;5063902;28;20468;-53
2023/01/23 03:01:07;;;;;;;6.23;2.60;;;;;;;-6.86;100.00;102917.75;5061734;28;20071;-52
2023/01/23 03:03:33;;;;;;;14.67;4.33;;;;;;;-6.89;100.00;102925.53;5061393;28;20029;-54
2023/01/23 03:06:02;;;;;;;11.23;4.07;;;;;;;-6.89;100.00;102919.50;5064724;28;20029;-53
2023/01/23 03:08:32;;;;;;;5.60;2.03;;;;;;;-6.92;100.00;102922.97;5067199;28;20464;-55
2023/01/23 03:10:58;;;;;;;7.88;2.85;;;;;;;-6.67;100.00;102927.84;5062227;28;20021;-54
2023/01/23 03:13:23;;;;;;;11.03;4.10;;;;;;;-6.40;100.00;102927.47;5056999;28;20466;-56
2023/01/23 03:15:51;;;;;;;7.40;3.30;;;;;;;-6.72;100.00;102921.88;5065872;28;20032;-54
2023/01/23 03:18:17;;;;;;;3.83;3.17;;;;;;;-6.83;100.00;102922.88;5064371;28;20199;-54
2023/01/23 03:20:43;;;;;;;11.73;3.83;;;;;;;-6.90;100.00;102926.41;5059400;28;20121;-53
2023/01/23 03:23:08;;;;;;;9.37;4.03;;;;;;;-6.96;100.00;102929.06;5063694;28;20430;-55
2023/01/23 03:25:33;;;;;;;14.73;5.23;;;;;;;-7.05;100.00;102927.44;5067774;28;20119;-54
2023/01/23 03:27:59;;;;;;;8.57;4.10;;;;;;;-7.07;100.00;102931.75;5059593;28;20044;-54
2023/01/23 03:30:24;;;;;;;7.63;3.13;;;;;;;-7.09;100.00;102925.78;5063025;28;20037;-56
2023/01/23 03:32:50;;;;;;;7.33;3.50;;;;;;;-7.08;100.00;102932.63;5056428;28;20036;-54
2023/01/23 03:35:18;;;;;;;16.13;4.83;;;;;;;-7.05;100.00;102934.31;5069090;28;20412;-56
2023/01/23 03:37:43;;;;;;;4.50;2.83;;;;;;;-7.01;100.00;102936.00;5056211;28;20032;-56
2023/01/23 03:42:58;;;;;;;5.33;3.13;;;;;;;-7.05;100.00;102931.72;5056090;28;20039;-57
2023/01/23 03:45:24;;;;;;;7.97;1.67;;;;;;;-7.06;100.00;102946.34;5059845;28;20028;-55
2023/01/23 03:47:49;;;;;;;7.70;2.60;;;;;;;-7.13;100.00;102938.72;5052964;28;20409;-53
2023/01/23 03:50:15;;;;;;;8.33;2.17;;;;;;;-7.20;100.00;102940.50;5058769;28;20060;-55
2023/01/23 03:52:41;;;;;;;4.70;2.37;;;;;;;-7.15;100.00;102935.28;5056496;28;20035;-57
2023/01/23 03:55:07;;;;;;;3.37;2.17;;;;;;;-7.01;100.00;102933.41;5060926;28;20026;-55
2023/01/23 03:57:32;;;;;;;8.40;2.57;;;;;;;-7.04;100.00;102924.00;5063832;28;20040;-53
2023/01/23 03:59:57;;;;;;;5.57;2.73;;;;;;;-7.11;100.00;102918.91;5061854;28;20037;-53
2023/01/23 04:02:23;;;;;;;9.37;2.93;;;;;;;-7.11;100.00;102918.91;5059811;28;20040;-54
2023/01/23 04:04:48;;;;;;;9.70;2.90;;;;;;;-7.03;100.00;102925.69;5063140;28;20463;-51
2023/01/23 04:07:14;;;;;;;11.40;2.87;;;;;;;-6.98;100.00;102919.63;5069754;28;20462;-57
2023/01/23 04:09:39;;;;;;;8.23;3.40;;;;;;;-6.92;100.00;102922.13;5063074;28;20454;-56
2023/01/23 04:12:04;;;;;;;8.80;3.37;;;;;;;-6.89;100.00;102927.25;5055687;28;20159;-53
2023/01/23 04:14:34;;;;;;;4.97;2.73;;;;;;;-6.88;100.00;102916.91;5059532;28;20024;-53
2023/01/23 04:16:59;;;;;;;9.40;2.63;;;;;;;-6.89;100.00;102920.38;5064497;28;20533;-55
2023/01/23 04:19:24;;;;;;;5.53;3.47;;;;;;;-6.94;100.00;102914.44;5067748;28;20024;-56
2023/01/23 04:21:50;;;;;;;9.37;4.17;;;;;;;-7.02;100.00;102908.50;5054979;28;20080;-55
2023/01/23 04:24:16;;;;;;;6.20;2.47;;;;;;;-7.08;100.00;102912.00;5066194;28;20041;-57
2023/01/23 04:26:41;;;;;;;8.53;3.17;;;;;;;-7.14;100.00;102916.38;5076845;28;20044;-51
2023/01/23 04:29:07;;;;;;;7.10;3.60;;;;;;;-7.18;100.00;102910.38;5057621;28;20170;-56
2023/01/23 04:31:34;;;;;;;5.80;2.90;;;;;;;-7.17;100.00;102916.41;5055527;28;20130;-52
2023/01/23 04:33:59;;;;;;;7.57;3.67;;;;;;;-7.17;100.00;102917.28;5062679;28;20045;-54
2023/01/23 04:36:25;;;;;;;11.37;4.37;;;;;;;-7.24;100.00;102919.03;5062378;28;20458;-53
2023/01/23 04:38:50;;;;;;;10.00;3.70;;;;;;;-7.28;100.00;102912.25;5070158;28;20046;-52
2023/01/23 04:41:21;;;;;;;7.20;3.87;;;;;;;-7.28;100.00;102924.25;5063583;28;20040;-54
2023/01/23 04:43:46;;;;;;;4.78;2.97;;;;;;;-7.29;100.00;102922.56;5062077;28;20367;-52
2023/01/23 04:46:12;;;;;;;10.37;4.23;;;;;;;-7.25;100.00;102924.25;5060124;28;20090;-52
2023/01/23 04:48:37;;;;;;;6.90;3.33;;;;;;;-7.23;100.00;102925.06;5059056;28;20614;-52
2023/01/23 04:51:02;;;;;;;8.80;3.27;;;;;;;-7.24;100.00;102926.78;5060894;28;20505;-51
2023/01/23 04:53:28;;;;;;;2.73;1.67;;;;;;;-7.33;100.00;102931.19;5062784;28;21004;-52
2023/01/23 04:55:53;;;;;;;7.13;2.97;;;;;;;-7.39;100.00;102920.94;5071009;28;20098;-53
2023/01/23 04:58:18;;;;;;;8.40;3.77;;;;;;;-7.41;100.00;102923.53;5057940;28;20518;-56
2023/01/23 05:00:45;;;;;;;9.43;3.40;;;;;;;-7.43;100.00;102920.13;5068425;28;20035;-52
2023/01/23 05:03:10;;;;;;;6.27;2.73;;;;;;;-7.42;100.00;102913.25;5062887;28;20106;-53
2023/01/23 05:05:35;;;;;;;6.63;2.80;;;;;;;-7.43;100.00;102914.09;5074356;28;20147;-53
2023/01/23 05:08:01;;;;;;;7.10;2.50;;;;;;;-7.43;100.00;102920.13;5062165;28;20207;-53
2023/01/23 05:10:26;;;;;;;5.43;2.10;;;;;;;-7.45;100.00;102916.72;5060958;28;20068;-55
2023/01/23 05:12:52;;;;;;;6.67;3.60;;;;;;;-7.48;100.00;102916.75;5060779;28;20040;-54
2023/01/23 05:15:17;;;;;;;9.43;2.93;;;;;;;-7.48;100.00;102920.16;5063319;28;20033;-54
2023/01/23 05:17:43;;;;;;;11.90;3.83;;;;;;;-7.48;100.00;102919.31;5060324;28;20112;-55
2023/01/23 05:20:09;;;;;;;6.53;3.20;;;;;;;-7.46;100.00;102926.16;5060553;28;20035;-53
2023/01/23 05:22:34;;;;;;;12.73;3.67;;;;;;;-7.48;100.00;102927.06;5056273;28;20048;-53
2023/01/23 05:25:00;;;;;;;8.80;2.97;;;;;;;-7.50;100.00;102921.91;5061511;28;20110;-53
2023/01/23 05:27:25;;;;;;;11.17;2.93;;;;;;;-7.48;100.00;102927.06;5062802;28;20123;-56
2023/01/23 05:29:50;;;;;;;7.17;4.07;;;;;;;-7.53;100.00;102928.81;5061440;28;20497;-54
2023/01/23 05:32:16;;;;;;;7.03;3.47;;;;;;;-7.53;100.00;102928.81;5064736;28;20033;-53
2023/01/23 05:34:41;;;;;;;13.13;4.07;;;;;;;-7.53;100.00;102932.25;5071122;28;20119;-53
2023/01/23 05:37:06;;;;;;;9.87;3.27;;;;;;;-7.51;100.00;102948.56;5068083;28;20037;-51
2023/01/23 05:39:32;;;;;;;10.40;4.27;;;;;;;-7.49;100.00;102956.25;5063301;28;20474;-55
2023/01/23 05:41:57;;;;;;;9.53;4.30;;;;;;;-7.50;100.00;102954.56;5069459;28;20479;-53
2023/01/23 05:44:23;;;;;;;9.87;3.03;;;;;;;-7.53;100.00;102955.44;5060532;28;20206;-53
2023/01/23 05:46:48;;;;;;;6.77;2.67;;;;;;;-7.63;100.00;102953.81;5063974;28;20041;-55
2023/01/23 05:49:14;;;;;;;11.07;3.63;;;;;;;-7.70;100.00;102953.00;5056007;28;20029;-55
2023/01/23 05:51:39;;;;;;;6.63;2.90;;;;;;;-7.73;100.00;102950.44;5070256;28;20160;-52
2023/01/23 05:54:05;;;;;;;9.03;2.97;;;;;;;-7.75;100.00;102939.31;5064854;28;20628;-53
2023/01/23 05:56:30;;;;;;;13.10;3.00;;;;;;;-7.79;100.00;102942.78;5054876;28;20029;-55
2023/01/23 05:58:55;;;;;;;5.90;3.20;;;;;;;-7.84;100.00;102934.25;5066322;28;20028;-52
2023/01/23 06:01:21;;;;;;;9.50;3.37;;;;;;;-7.82;100.00;102937.66;5064723;28;20107;-52
2023/01/23 06:03:46;;;;;;;10.70;3.77;;;;;;;-7.77;100.00;102938.47;5064803;28;20028;-56
2023/01/23 06:06:12;;;;;;;10.20;4.10;;;;;;;-7.77;100.00;102935.03;5064005;28;20036;-53
2023/01/23 06:08:37;;;;;;;14.93;4.87;;;;;;;-7.76;100.00;102936.75;5067232;28;20032;-55
2023/01/23 06:11:03;;;;;;;7.83;3.13;;;;;;;-7.53;100.00;102936.56;5072382;28;20036;-56
2023/01/23 06:13:28;;;;;;;7.83;3.70;;;;;;;-6.63;100.00;102939.84;5057857;28;20106;-51
2023/01/23 06:15:54;;;;;;;10.87;3.73;;;;;;;-6.56;100.00;102931.13;5055591;28;20033;-53
2023/01/23 06:18:20;;;;;;;10.43;2.93;;;;;;;-6.53;100.00;102937.97;5060770;28;20078;-51
2023/01/23 06:20:46;;;;;;;12.57;4.63;;;;;;;-6.58;100.00;102938.06;5060021;28;20514;-55
2023/01/23 06:23:12;;;;;;;13.47;4.80;;;;;;;-6.74;100.00;102933.94;5063055;28;20082;-51
2023/01/23 06:25:37;;;;;;;7.50;3.80;;;;;;;-6.73;100.00;102935.66;5060345;28;20425;-55
2023/01/23 06:28:03;;;;;;;10.90;3.97;;;;;;;-6.64;100.00;102938.13;5056922;28;20024;-52
2023/01/23 06:30:28;;;;;;;8.67;3.30;;;;;;;-6.73;100.00;102946.00;5063302;28;20068;-50
2023/01/23 06:32:54;;;;;;;12.70;3.40;;;;;;;-6.77;100.00;102952.91;5069544;28;20035;-54
2023/01/23 06:35:20;;;;;;;6.57;3.30;;;;;;;-7.53;100.00;102957.16;5054549;28;20052;-54
2023/01/23 06:37:45;;;;;;;10.37;3.73;;;;;;;-7.73;100.00;102962.50;5067976;28;20036;-56
2023/01/23 06:40:14;;;;;;;8.23;3.47;;;;;;;-7.83;100.00;102956.53;5058034;28;20108;-56
2023/01/23 06:42:40;;;;;;;13.17;3.83;;;;;;;-7.85;100.00;102955.69;5057919;28;20033;-51
2023/01/23 06:45:07;;;;;;;15.33;4.73;;;;;;;-7.86;100.00;102966.88;5058719;28;20033;-55
2023/01/23 06:47:32;;;;;;;8.57;3.73;;;;;;;-7.91;100.00;102968.63;5064259;28;20044;-53
2023/01/23 06:49:58;;;;;;;6.70;3.70;;;;;;;-7.96;100.00;102962.66;5056728;28;20379;-51
2023/01/23 06:52:23;;;;;;;5.57;3.03;;;;;;;-7.98;100.00;102969.53;5062016;28;20486;-52
2023/01/23 06:54:49;;;;;;;14.23;5.90;;;;;;;-8.03;100.00;102969.56;5074618;28;20047;-54
2023/01/23 06:57:14;;;;;;;6.00;3.87;;;;;;;-8.07;100.00;102962.75;5058324;28;20021;-55
2023/01/23 06:59:40;;;;;;;6.43;3.30;;;;;;;-8.05;100.00;102968.75;5056930;28;20024;-52
2023/01/23 07:02:05;;;;;;;8.37;4.10;;;;;;;-7.96;100.00;102970.38;5066522;28;20033;-52
2023/01/23 07:04:31;;;;;;;8.67;4.47;;;;;;;-7.94;100.00;102972.09;5055991;28;20200;-54
2023/01/23 07:06:57;;;;;;;8.60;3.13;;;;;;;-7.95;100.00;102974.66;5055763;28;20028;-56
2023/01/23 07:09:23;;;;;;;9.03;3.47;;;;;;;-8.01;100.00;102970.41;5056803;28;20041;-55
2023/01/23 07:11:48;;;;;;;11.27;3.97;;;;;;;-8.06;100.00;102971.31;5068341;28;20476;-55
2023/01/23 07:14:13;;;;;;;7.87;3.70;;;;;;;-8.07;100.00;102978.19;5060341;28;20040;-55
2023/01/23 07:16:39;;;;;;;11.33;3.30;;;;;;;-8.04;100.00;102967.88;5056952;28;20449;-53
2023/01/23 07:19:04;;;;;;;3.70;2.87;;;;;;;-8.03;100.00;102974.72;5063432;28;20060;-56
2023/01/23 07:21:31;;;;;;;4.43;3.23;;;;;;;-8.02;100.00;102980.75;5057463;28;20029;-55
2023/01/23 07:23:56;;;;;;;10.07;4.53;;;;;;;-8.03;100.00;102972.13;5062862;28;20175;-51
2023/01/23 07:26:21;;;;;;;5.73;3.03;;;;;;;-8.02;100.00;102975.59;5056754;28;20236;-54
2023/01/23 07:28:47;;;;;;;7.13;3.23;;;;;;;-8.09;100.00;102973.91;5057632;28;20491;-53
2023/01/23 07:31:12;;;;;;;6.20;2.70;;;;;;;-8.14;100.00;102961.06;5060641;28;20016;-55
2023/01/23 07:33:38;;;;;;;3.50;2.33;;;;;;;-8.12;100.00;102967.91;5054229;28;20035;-53
2023/01/23 07:36:05;;;;;;;8.43;3.20;;;;;;;-8.08;100.00;102966.16;5052576;28;20373;-55
2023/01/23 07:38:31;;;;;;;7.30;2.53;;;;;;;-8.07;100.00;102962.75;5051062;28;20118;-56
2023/01/23 07:40:57;;;;;;;8.00;3.03;;;;;;;-8.08;100.00;102960.16;5063086;28;20481;-54
2023/01/23 07:43:23;;;;;;;8.70;3.53;;;;;;;-8.05;100.00;102966.16;5053533;28;20151;-52
2023/01/23 07:45:49;;;;;;;9.00;4.10;;;;;;;-7.99;100.00;102970.41;5054384;28;20464;-56
2023/01/23 07:48:14;;;;;;;7.30;2.93;;;;;;;-7.97;100.00;102971.25;5061570;28;20507;-56
2023/01/23 07:50:40;;;;;;;4.27;2.73;;;;;;;-7.94;100.00;102973.81;5062237;28;20052;-55
2023/01/23 07:53:05;;;;;;;13.37;3.50;;;;;;;-7.91;100.00;102984.09;5059673;28;20446;-50
2023/01/23 07:55:30;;;;;;;7.63;3.27;;;;;;;-7.88;100.00;102984.06;5060111;28;20039;-54
2023/01/23 07:57:56;;;;;;;14.63;4.90;;;;;;;-7.88;100.00;102986.63;5055645;28;20367;-52
2023/01/23 08:00:22;;;;;;;9.93;2.93;;;;;;;-7.88;100.00;102993.50;5058381;28;20086;-52
2023/01/23 08:02:47;;;;;;;7.73;3.10;;;;;;;-7.81;100.00;102990.88;5074505;28;20024;-56
2023/01/23 08:05:13;;;;;;;8.87;4.23;;;;;;;-7.76;100.00;102996.84;5066110;28;20028;-54
2023/01/23 08:07:38;;;;;;;6.17;2.97;;;;;;;-7.73;100.00;102991.66;5061693;28;20033;-55
2023/01/23 08:10:05;;;;;;;7.27;3.30;;;;;;;-7.70;100.00;102993.38;5062516;28;20031;-49
2023/01/23 08:12:30;;;;;;;10.53;3.27;;;;;;;-7.73;100.00;103007.13;5058640;28;20382;-53
2023/01/23 08:14:55;;;;;;;10.77;4.07;;;;;;;-7.76;100.00;103007.16;5061654;28;20029;-54
2023/01/23 08:17:21;;;;;;;6.43;3.73;;;;;;;-7.73;100.00;103022.59;5060098;28;20033;-52
2023/01/23 08:19:46;;;;;;;11.47;2.97;;;;;;;-7.72;100.00;103029.47;5058566;28;20106;-55
2023/01/23 08:22:11;;;;;;;8.63;2.90;;;;;;;-7.69;100.00;103032.00;5055799;28;20029;-53
2023/01/23 08:24:37;;;;;;;6.60;2.80;;;;;;;-7.68;100.00;103030.28;5073858;28;20549;-53
2023/01/23 08:27:02;;;;;;;6.23;2.23;;;;;;;-7.68;100.00;103031.13;5082682;28;20059;-55
2023/01/23 08:29:27;;;;;;;17.20;3.57;;;;;;;-7.59;100.00;103034.50;5062122;28;20024;-56
2023/01/23 08:31:53;;;;;;;5.90;2.50;;;;;;;-7.52;100.00;103038.75;5067247;28;20487;-55
2023/01/23 08:34:20;;;;;;;11.20;4.17;;;;;;;-7.46;100.00;103034.41;5064538;28;20040;-52
2023/01/23 08:36:46;;;;;;;7.80;4.07;;;;;;;-7.40;100.00;103033.50;5067052;28;20040;-52
2023/01/23 08:39:11;;;;;;;10.17;3.80;;;;;;;-7.25;100.00;103037.69;5070012;28;20028;-52
2023/01/23 08:41:36;;;;;;;5.97;2.33;;;;;;;-7.13;100.00;103039.28;5058167;28;20401;-53
2023/01/23 08:44:03;;;;;;;10.30;3.50;;;;;;;-7.10;100.00;103045.28;5063396;28;20367;-55
2023/01/23 08:46:28;;;;;;;8.80;2.73;;;;;;;-7.11;100.00;103042.69;5064964;28;20037;-51
2023/01/23 08:48:54;;;;;;;7.33;2.23;;;;;;;-7.09;100.00;103044.41;5056692;28;20044;-56
2023/01/23 08:51:20;;;;;;;4.63;2.43;;;;;;;-6.98;100.00;103043.44;5064664;28;20049;-53
2023/01/23 08:53:45;;;;;;;5.10;2.60;;;;;;;-6.83;100.00;103044.13;5061892;28;20501;-50
2023/01/23 08:56:14;;;;;;;4.90;2.43;;;;;;;-6.67;100.00;103043.97;5066464;28;20044;-54
2023/01/23 08:58:40;;;;;;;14.55;4.25;;;;;;;-6.47;100.00;103039.44;5058074;28;20032;-52
2023/01/23 09:01:10;;;;;;;5.72;2.88;;;;;;;-6.20;100.00;103042.53;5058959;28;20191;-51
2023/01/23 09:03:35;;;;;;;9.20;3.50;;;;;;;-5.98;100.00;103043.94;5061411;28;20029;-54
2023/01/23 09:06:01;;;;;;;8.02;3.78;;;;;;;-5.79;100.00;103044.50;5054429;28;20044;-55
2023/01/23 09:08:26;;;;;;;6.78;4.03;;;;;;;-5.60;100.00;103046.78;5055204;28;20031;-56
2023/01/23 09:10:51;;;;;;;7.78;4.10;;;;;;;-5.44;100.00;103048.28;5058392;28;20028;-54
2023/01/23 09:13:18;;;;;;;3.72;2.05;;;;;;;-5.30;100.00;103048.03;5060828;28;20033;-51
2023/01/23 09:15:44;;;;;;;6.78;3.20;;;;;;;-5.17;100.00;103041.78;5067336;28;20021;-53
2023/01/23 09:18:10;;;;;;;6.30;3.05;;;;;;;-4.98;100.00;103054.38;5067163;28;20104;-52
2023/01/23 09:20:37;;;;;;;3.72;2.63;;;;;;;-4.82;100.00;103055.81;5057018;28;20108;-54
2023/01/23 09:23:02;;;;;;;3.85;2.15;;;;;;;-4.67;100.00;103054.69;5064029;28;20107;-54
2023/01/23 09:25:30;;;;;;;14.90;2.72;;;;;;;-4.54;100.00;103060.44;5071691;28;20027;-50
2023/01/23 09:27:55;;;;;;;6.65;2.70;;;;;;;-4.44;100.00;103056.78;5065591;28;20083;-51
2023/01/23 09:30:20;;;;;;;8.00;3.35;;;;;;;-4.32;100.00;103059.13;5065795;28;20060;-53
2023/01/23 09:32:46;;;;;;;8.15;3.03;;;;;;;-4.34;100.00;103060.06;5057840;28;20028;-53
2023/01/23 09:35:11;;;;;;;9.45;3.03;;;;;;;-4.31;100.00;103066.03;5061816;28;20040;-52
2023/01/23 09:40:23;;;;;;;12.38;4.38;;;;;;;-3.99;100.00;103056.72;5061221;28;20091;-56
2023/01/23 09:42:50;;;;;;;7.22;3.72;;;;;;;-3.88;100.00;103059.91;5069274;28;20432;-53
2023/01/23 09:45:20;;;;;;;9.20;3.63;;;;;;;-3.75;100.00;103058.75;5053292;28;20033;-56
2023/01/23 09:47:57;;;;;;;5.57;3.42;;;;;;;-3.60;100.00;103067.06;5057322;28;20033;-55
2023/01/23 09:50:28;;;;;;;14.15;4.30;;;;;;;-3.47;100.00;103078.84;5057743;28;20148;-53
2023/01/23 09:53:16;;;;;;;7.10;3.55;;;;;;;-3.27;100.00;103078.38;5071593;28;20489;-53
2023/01/23 09:55:47;;;;;;;7.38;3.72;;;;;;;-3.15;100.00;103085.88;5056701;28;20784;-51
2023/01/23 09:58:22;;;;;;;10.80;3.45;;;;;;;-3.04;100.00;103087.34;5055949;28;20033;-52
2023/01/23 10:00:50;;;;;;;7.43;3.40;;;;;;;-3.01;100.00;103082.91;5066177;28;20020;-54
2023/01/23 10:03:15;;;;;;;11.70;4.05;;;;;;;-2.99;100.00;103083.72;5063857;28;20071;-50
2023/01/23 10:05:49;;;;;;;4.50;2.35;;;;;;;-2.94;100.00;103087.06;5060971;28;20374;-53
2023/01/23 10:08:26;;;;;;;5.05;2.92;;;;;;;-2.82;100.00;103085.03;5071717;28;20037;-50
2023/01/23 10:11:17;;;;;;;9.95;3.17;;;;;;;-2.65;100.00;103090.63;5067167;28;20041;-53
2023/01/23 10:14:20;;;;;;;6.57;2.63;;;;;;;-2.51;100.00;103082.44;5060181;28;20056;-54
2023/01/23 10:17:01;;;;;;;5.30;3.30;;;;;;;-2.37;100.00;103075.13;5064113;28;20040;-55
2023/01/23 10:20:01;;;;;;;8.82;4.15;;;;;;;-2.13;100.00;103073.56;5050287;28;20445;-50
2023/01/23 10:22:54;;;;;;;7.57;3.97;;;;;;;-2.01;100.00;103073.19;5059027;28;20115;-50
2023/01/23 10:25:31;;;;;;;14.52;6.60;;;;;;;-1.94;100.00;103073.00;5054476;28;20044;-54
2023/01/23 10:28:11;;;;;;;20.67;8.00;;;;;;;-1.86;100.00;103074.50;5061998;28;20036;-51
2023/01/23 10:30:40;;;;;;;14.07;5.47;;;;;;;-1.74;100.00;103081.06;5059630;28;20025;-51
2023/01/23 10:33:15;;;;;;;19.48;6.43;;;;;;;-1.64;100.00;103079.03;5065835;28;20161;-54
2023/01/23 10:35:46;;;;;;;11.48;4.90;;;;;;;-1.58;100.00;103074.47;5057808;28;20119;-55
2023/01/23 10:38:21;;;;;;;29.77;10.52;;;;;;;-1.44;100.00;103081.00;5063894;28;20071;-56
2023/01/23 10:43:33;;;;;;;13.93;5.65;;;;;;;-1.37;100.00;103074.66;5054467;28;20063;-51
2023/01/23 10:45:59;;;;;;;13.45;6.60;;;;;;;-1.31;100.00;103074.50;5050451;28;20033;-53
2023/01/23 10:48:27;;;;;;;8.05;4.47;;;;;;;-1.11;100.00;103081.63;5062111;28;20033;-52
2023/01/23 10:50:53;;;;;;;9.98;5.35;;;;;;;-0.94;100.00;103084.50;5051824;28;20055;-53
2023/01/23 10:53:20;;;;;;;7.05;4.35;;;;;;;-0.78;100.00;103078.75;5058607;28;20033;-52
2023/01/23 10:55:47;;;;;;;11.77;4.03;;;;;;;-0.65;100.00;103069.59;5063023;28;20078;-49
2023/01/23 10:58:31;;;;;;;5.88;2.75;;;;;;;-0.53;100.00;103068.31;5058898;28;20047;-51
2023/01/23 11:00:57;;;;;;;7.22;3.28;;;;;;;-0.48;100.00;103066.41;5063140;28;20051;-55
2023/01/23 11:03:27;;;;;;;6.13;3.22;;;;;;;-0.40;100.00;103061.75;5055604;28;20033;-49
2023/01/23 11:05:55;;;;;;;6.03;2.72;;;;;;;-0.30;100.00;103057.91;5060612;28;20127;-52
2023/01/23 11:08:35;;;;;;;10.05;3.47;;;;;;;-0.23;100.00;103067.19;5063862;28;20086;-51
2023/01/23 11:11:15;;;;;;;14.57;3.80;;;;;;;-0.05;100.00;103057.00;5061262;28;20475;-51
2023/01/23 11:13:46;;;;;;;5.55;3.42;;;;;;;0.11;100.00;103059.84;5067656;28;20166;-51
2023/01/23 11:16:22;;;;;;;4.20;3.00;;;;;;;0.33;100.00;103068.50;5061108;28;20044;-49
2023/01/23 11:19:03;;;;;;;14.20;7.97;;;;;;;0.52;100.00;103066.03;5061166;28;20029;-52
2023/01/23 11:21:33;;;;;;;14.00;6.25;;;;;;;0.71;100.00;103060.03;5057312;28;20037;-51
2023/01/23 11:24:17;;;;;;;11.60;4.82;;;;;;;0.90;100.00;103058.34;5057574;28;20071;-50
2023/01/23 11:26:42;;;;;;;5.15;3.15;;;;;;;0.94;100.00;103053.84;5055173;28;20033;-54
2023/01/23 11:29:26;;;;;;;7.43;4.22;;;;;;;1.16;100.00;103049.41;5056055;28;20036;-51